This is the latest recevied weather packets stored in our database for station/object YC0ACE-13. If no packets are shown the sender has not sent any weather packets the latest 1 day(s).
| Time | Temp. | Humidity | Pressure | Rain* | Wind** | Luminosity | Snow |
|---|---|---|---|---|---|---|---|
| 1778035824 | 31.11° C | 67% | 1014.9 hPa | 0 mm | - | 705 W/m² | - |
| 1778035525 | 31.67° C | 66% | 1014.9 hPa | 0 mm | - | 727 W/m² | - |
| 1778035224 | 31.67° C | 65% | 1014.9 hPa | 0 mm | - | 661 W/m² | - |
| 1778034924 | 31.11° C | 68% | 1015.2 hPa | 0 mm | - | 282 W/m² | - |
| 1778034624 | 31.11° C | 68% | 1014.9 hPa | 0 mm | - | 606 W/m² | - |
| 1778033725 | 31.11° C | 67% | 1015.2 hPa | 0 mm | - | 580 W/m² | - |
| 1778033424 | 30.56° C | 71% | 1015.2 hPa | 0 mm | - | 513 W/m² | - |
| 1778033125 | 30.56° C | 71% | 1015.2 hPa | 0 mm | - | 511 W/m² | - |
| 1778032524 | 30.56° C | 71% | 1015.2 hPa | 0 mm | - | 413 W/m² | - |
| 1778032225 | 30° C | 72% | 1015.2 hPa | 0 mm | - | 473 W/m² | - |
| 1778031624 | 30° C | 75% | 1015.2 hPa | 0 mm | - | 406 W/m² | - |
| 1778031324 | 29.44° C | 77% | 1015.2 hPa | 0 mm | - | 399 W/m² | - |
| 1778030724 | 29.44° C | 78% | 1015.2 hPa | 0 mm | - | 326 W/m² | - |
| 1778030424 | 29.44° C | 78% | 1015.2 hPa | 0 mm | - | 334 W/m² | - |
| 1778029830 | 28.89° C | 79% | 1015.2 hPa | 0 mm | - | 306 W/m² | - |
| 1778029524 | 28.89° C | 80% | 1015.6 hPa | 0 mm | - | 308 W/m² | - |
| 1778029224 | 28.33° C | 82% | 1015.2 hPa | 0 mm | - | 298 W/m² | - |
| 1778028325 | 27.78° C | 83% | 1015.2 hPa | 0 mm | - | 269 W/m² | - |
| 1778028024 | 27.78° C | 84% | 1015.2 hPa | 0 mm | - | 187 W/m² | - |
| 1778027724 | 27.78° C | 84% | 1015.2 hPa | 0 mm | - | 168 W/m² | - |
| 1778027425 | 27.78° C | 84% | 1015.2 hPa | 0 mm | - | 136 W/m² | - |
| 1778027126 | 27.78° C | 84% | 1015.2 hPa | 0 mm | - | 175 W/m² | - |
| 1778026825 | 27.78° C | 84% | 1015.2 hPa | 0 mm | - | 125 W/m² | - |
| 1778025926 | 27.22° C | 87% | 1015.2 hPa | 0 mm | - | 135 W/m² | - |
| 1778023225 | 26.67° C | 89% | 1014.9 hPa | 0 mm | - | 33 W/m² | - |
* Rain latest hour (hover to see other rain measurements)
** Current wind speed in m/s (hover to see current wind gust speed)